createdAt,value
2018-07-06T00:00:32.986Z,6.90
2018-07-06T00:03:19.671Z,6.83
2018-07-06T00:06:06.833Z,6.73
2018-07-06T00:08:53.525Z,5.40
2018-07-06T00:11:41.520Z,5.33
2018-07-06T00:14:28.270Z,5.53
2018-07-06T00:17:15.920Z,6.40
2018-07-06T00:20:02.464Z,5.47
2018-07-06T00:22:49.810Z,4.80
2018-07-06T00:25:36.462Z,4.63
2018-07-06T00:28:23.819Z,3.73
2018-07-06T00:31:10.574Z,3.63
2018-07-06T00:33:57.840Z,3.40
2018-07-06T00:36:44.563Z,3.47
2018-07-06T00:39:32.592Z,3.40
2018-07-06T00:42:19.099Z,3.90
2018-07-06T00:45:06.290Z,3.30
2018-07-06T00:47:52.900Z,2.80
2018-07-06T00:50:39.987Z,2.53
2018-07-06T00:53:27.570Z,2.87
2018-07-06T00:56:15.357Z,2.40
2018-07-06T00:59:01.908Z,2.20
2018-07-06T01:04:14.440Z,2.30
2018-07-06T01:07:01.135Z,2.30
2018-07-06T01:09:48.220Z,2.10
2018-07-06T01:12:40.287Z,2.20
2018-07-06T01:15:33.033Z,1.90
2018-07-06T01:18:19.672Z,2.40
2018-07-06T01:21:07.135Z,2.77
2018-07-06T01:23:53.805Z,2.07
2018-07-06T01:26:41.348Z,2.17
2018-07-06T01:29:28.140Z,2.70
2018-07-06T01:32:14.744Z,2.10
2018-07-06T01:35:02.300Z,2.33
2018-07-06T01:37:48.945Z,2.37
2018-07-06T01:40:36.317Z,2.40
2018-07-06T01:43:22.987Z,2.13
2018-07-06T01:46:10.525Z,2.43
2018-07-06T01:48:56.980Z,2.50
2018-07-06T01:51:44.419Z,2.30
2018-07-06T01:54:32.165Z,2.77
2018-07-06T01:57:13.453Z,2.40
2018-07-06T01:59:53.925Z,2.47
2018-07-06T02:02:41.427Z,2.83
2018-07-06T02:05:28.088Z,2.60
2018-07-06T02:08:16.159Z,2.90
2018-07-06T02:11:02.623Z,2.73
2018-07-06T02:13:49.701Z,2.77
2018-07-06T02:16:36.479Z,2.70
2018-07-06T02:19:23.991Z,3.47
2018-07-06T02:22:10.544Z,3.73
2018-07-06T02:24:58.507Z,3.50
2018-07-06T02:27:45.169Z,4.20
2018-07-06T02:30:32.128Z,3.53
2018-07-06T02:33:18.699Z,4.33
2018-07-06T02:36:05.785Z,4.10
2018-07-06T02:38:52.620Z,4.40
2018-07-06T02:41:40.363Z,4.17
2018-07-06T02:44:27.052Z,4.17
2018-07-06T02:47:14.108Z,5.43
2018-07-06T02:50:00.517Z,5.40
2018-07-06T02:52:47.828Z,5.37
2018-07-06T02:55:36.162Z,6.07
2018-07-06T02:58:23.576Z,5.40
2018-07-06T03:01:10.745Z,6.30
2018-07-06T03:03:57.294Z,6.03
2018-07-06T03:06:44.761Z,6.70
2018-07-06T03:09:31.282Z,7.40
2018-07-06T03:12:18.894Z,7.03
2018-07-06T03:15:05.521Z,6.87
2018-07-06T03:17:52.793Z,6.83
2018-07-06T03:20:39.603Z,5.70
2018-07-06T03:23:26.712Z,5.40
2018-07-06T03:26:13.216Z,4.17
2018-07-06T03:29:00.618Z,3.70
2018-07-06T03:31:47.319Z,3.80
2018-07-06T03:34:35.105Z,4.63
2018-07-06T03:37:21.705Z,4.10
2018-07-06T03:40:08.963Z,3.80
2018-07-06T03:42:55.569Z,5.23
2018-07-06T03:45:42.980Z,4.47
2018-07-06T03:48:29.355Z,5.70
2018-07-06T03:51:16.411Z,6.83
2018-07-06T03:54:03.061Z,7.37
2018-07-06T03:56:51.006Z,8.23
2018-07-06T03:59:37.736Z,8.80
2018-07-06T04:02:19.009Z,8.70
2018-07-06T04:05:05.409Z,9.97
2018-07-06T04:07:52.980Z,8.90
2018-07-06T04:10:39.678Z,8.60
2018-07-06T04:13:27.421Z,8.33
2018-07-06T04:16:14.150Z,9.23
2018-07-06T04:19:11.575Z,8.70
2018-07-06T04:21:58.355Z,9.20
2018-07-06T04:24:45.722Z,9.07
2018-07-06T04:27:32.294Z,8.70
2018-07-06T04:30:12.887Z,8.57
2018-07-06T04:33:00.167Z,10.10
2018-07-06T04:35:46.796Z,9.60
2018-07-06T04:38:34.626Z,11.40
2018-07-06T04:41:21.324Z,11.70
2018-07-06T04:44:08.445Z,12.17
2018-07-06T04:46:55.537Z,9.73
2018-07-06T04:49:43.098Z,10.73
2018-07-06T04:52:29.667Z,11.00
2018-07-06T04:55:17.472Z,10.70
2018-07-06T04:58:05.133Z,9.33
2018-07-06T05:00:52.505Z,10.00
2018-07-06T05:03:39.285Z,9.23
2018-07-06T05:06:26.660Z,8.90
2018-07-06T05:09:13.156Z,8.60
2018-07-06T05:12:00.639Z,9.13
2018-07-06T05:14:47.225Z,9.33
2018-07-06T05:17:34.982Z,10.07
2018-07-06T05:20:21.561Z,8.30
2018-07-06T05:23:08.377Z,9.10
2018-07-06T05:25:55.779Z,8.83
2018-07-06T05:28:42.307Z,9.53
2018-07-06T05:31:29.278Z,9.20
2018-07-06T05:34:16.248Z,9.33
2018-07-06T05:37:03.921Z,9.17
2018-07-06T05:39:44.370Z,9.77
2018-07-06T05:42:31.685Z,8.57
2018-07-06T05:45:18.407Z,8.43
2018-07-06T05:48:06.040Z,9.03
2018-07-06T05:50:52.612Z,9.30
2018-07-06T05:53:39.992Z,10.30
2018-07-06T05:56:26.734Z,9.70
2018-07-06T05:59:15.477Z,8.93
2018-07-06T06:02:02.130Z,8.83
2018-07-06T06:04:49.689Z,9.10
2018-07-06T06:07:25.363Z,8.37
2018-07-06T06:09:55.370Z,8.67
2018-07-06T06:12:24.872Z,8.53
2018-07-06T06:14:54.449Z,8.30
2018-07-06T06:17:24.617Z,8.47
2018-07-06T06:19:54.100Z,9.23
2018-07-06T06:22:23.577Z,9.90
2018-07-06T06:24:53.074Z,10.00
2018-07-06T06:27:25.928Z,8.60
2018-07-06T06:29:56.223Z,9.40
2018-07-06T06:32:25.604Z,8.63
2018-07-06T06:34:55.267Z,7.93
2018-07-06T06:37:25.811Z,8.30
2018-07-06T06:39:55.382Z,8.23
2018-07-06T06:42:25.595Z,8.23
2018-07-06T06:44:55.197Z,7.70
2018-07-06T06:47:24.704Z,7.77
2018-07-06T06:49:54.968Z,7.53
2018-07-06T06:52:24.068Z,8.00
2018-07-06T06:54:53.469Z,7.13
2018-07-06T06:57:24.133Z,7.50
2018-07-06T06:59:54.864Z,7.93
2018-07-06T07:02:25.706Z,8.60
2018-07-06T07:04:55.296Z,7.80
2018-07-06T07:07:24.893Z,6.67
2018-07-06T07:09:54.954Z,6.30
2018-07-06T07:12:24.558Z,7.33
2018-07-06T07:14:54.181Z,7.97
2018-07-06T07:17:24.202Z,7.80
2018-07-06T07:19:53.778Z,8.57
2018-07-06T07:22:23.622Z,8.60
2018-07-06T07:24:54.771Z,9.27
2018-07-06T07:27:24.699Z,9.67
2018-07-06T07:29:55.488Z,9.30
2018-07-06T07:32:25.113Z,8.23
2018-07-06T07:34:54.723Z,8.67
2018-07-06T07:37:24.972Z,9.90
2018-07-06T07:39:54.548Z,9.50
2018-07-06T07:42:24.108Z,8.40
2018-07-06T07:44:54.134Z,8.57
2018-07-06T07:47:23.717Z,8.93
2018-07-06T07:49:53.128Z,8.30
2018-07-06T07:52:34.940Z,9.13
2018-07-06T07:55:04.419Z,8.30
2018-07-06T07:57:33.578Z,9.63
2018-07-06T08:00:03.835Z,8.93
2018-07-06T08:02:34.426Z,9.20
2018-07-06T08:05:03.936Z,9.37
2018-07-06T08:07:33.521Z,8.37
2018-07-06T08:10:03.971Z,7.83
2018-07-06T08:12:33.445Z,8.23
2018-07-06T08:15:03.887Z,6.90
2018-07-06T08:17:33.427Z,7.70
2018-07-06T08:20:03.544Z,7.63
2018-07-06T08:22:32.975Z,8.00
2018-07-06T08:25:02.433Z,8.57
2018-07-06T08:27:32.864Z,8.20
2018-07-06T08:30:02.350Z,6.70
2018-07-06T08:32:31.818Z,6.53
2018-07-06T08:35:13.458Z,7.10
2018-07-06T08:37:56.534Z,6.67
2018-07-06T08:40:27.731Z,6.03
2018-07-06T08:42:59.202Z,6.53
2018-07-06T08:45:30.438Z,5.40
2018-07-06T08:47:59.911Z,4.60
2018-07-06T08:50:29.495Z,4.40
2018-07-06T08:52:59.965Z,5.00
2018-07-06T08:55:29.404Z,5.03
2018-07-06T08:57:59.323Z,4.67
2018-07-06T09:00:30.255Z,6.30
2018-07-06T09:02:59.770Z,5.87
2018-07-06T09:05:29.450Z,5.40
2018-07-06T09:07:59.991Z,5.50
2018-07-06T09:10:29.437Z,5.67
2018-07-06T09:12:59.072Z,5.83
2018-07-06T09:15:29.283Z,5.70
2018-07-06T09:17:58.779Z,5.90
2018-07-06T09:20:28.244Z,4.57
2018-07-06T09:22:58.544Z,4.80
2018-07-06T09:25:28.160Z,4.40
2018-07-06T09:27:57.604Z,4.50
2018-07-06T09:30:27.742Z,4.93
2018-07-06T09:32:57.219Z,5.97
2018-07-06T09:35:26.650Z,5.30
2018-07-06T09:37:56.711Z,5.90
2018-07-06T09:40:26.187Z,6.60
2018-07-06T09:42:57.128Z,5.93
2018-07-06T09:45:26.598Z,6.20
2018-07-06T09:47:56.116Z,6.47
2018-07-06T09:50:25.982Z,7.30
2018-07-06T09:52:55.458Z,6.40
2018-07-06T09:55:24.986Z,6.57
2018-07-06T09:57:56.157Z,7.27
2018-07-06T10:00:31.062Z,7.17
2018-07-06T10:03:03.712Z,8.53
2018-07-06T10:05:34.310Z,8.53
2018-07-06T10:08:06.116Z,8.37
2018-07-06T10:10:38.374Z,8.93
2018-07-06T10:13:10.501Z,7.20
2018-07-06T10:15:40.579Z,7.47
2018-07-06T10:18:11.327Z,6.43
2018-07-06T10:20:41.838Z,7.47
2018-07-06T10:23:13.625Z,6.27
2018-07-06T10:25:43.861Z,6.43
2018-07-06T10:29:19.635Z,6.93
2018-07-06T10:32:23.069Z,6.50
2018-07-06T10:34:53.637Z,7.07
2018-07-06T10:37:23.413Z,7.20
2018-07-06T10:39:54.339Z,8.20
2018-07-06T10:42:23.842Z,8.00
2018-07-06T10:44:55.343Z,6.90
2018-07-06T10:47:25.506Z,7.00
2018-07-06T10:49:57.128Z,6.43
2018-07-06T10:52:26.721Z,6.70
2018-07-06T10:54:56.355Z,7.00
2018-07-06T10:57:28.756Z,7.17
2018-07-06T10:59:58.737Z,7.00
2018-07-06T11:02:29.757Z,7.87
2018-07-06T11:05:00.334Z,7.87
2018-07-06T11:07:30.477Z,6.90
2018-07-06T11:10:00.053Z,7.80
2018-07-06T11:12:30.652Z,7.53
2018-07-06T11:15:01.051Z,7.37
2018-07-06T11:17:31.565Z,7.80
2018-07-06T11:20:01.654Z,8.17
2018-07-06T11:22:32.356Z,8.70
2018-07-06T11:25:01.871Z,10.20
2018-07-06T11:27:31.464Z,10.60
2018-07-06T11:30:02.430Z,12.40
2018-07-06T11:32:32.040Z,13.27
2018-07-06T11:35:02.589Z,14.00
2018-07-06T11:37:32.085Z,13.70
2018-07-06T11:40:03.640Z,17.57
2018-07-06T11:42:33.216Z,14.73
2018-07-06T11:45:03.736Z,12.43
2018-07-06T11:47:33.188Z,10.03
2018-07-06T11:50:05.952Z,9.50
2018-07-06T11:52:35.488Z,9.20
2018-07-06T11:55:05.927Z,8.67
2018-07-06T11:57:35.644Z,10.70
2018-07-06T12:00:05.951Z,10.47
2018-07-06T12:02:37.761Z,11.80
2018-07-06T12:05:08.039Z,12.90
2018-07-06T12:07:39.150Z,13.60
2018-07-06T12:10:08.704Z,14.27
2018-07-06T12:12:40.103Z,19.00
2018-07-06T12:15:11.023Z,18.03
2018-07-06T12:17:41.207Z,19.13
2018-07-06T12:20:11.117Z,21.73
2018-07-06T12:22:42.672Z,21.97
2018-07-06T12:25:12.206Z,22.40
2018-07-06T12:27:41.773Z,19.20
2018-07-06T12:30:12.369Z,18.27
2018-07-06T12:32:43.437Z,18.87
2018-07-06T12:35:14.350Z,17.77
2018-07-06T12:37:45.696Z,16.73
2018-07-06T12:40:16.497Z,12.90
2018-07-06T12:42:46.069Z,11.83
2018-07-06T12:45:15.751Z,10.40
2018-07-06T12:47:46.376Z,10.37
2018-07-06T12:50:15.885Z,11.07
2018-07-06T12:52:45.335Z,11.50
2018-07-06T12:55:16.035Z,11.77
2018-07-06T12:57:46.439Z,12.97
2018-07-06T13:00:16.694Z,14.13
2018-07-06T13:02:48.114Z,19.50
2018-07-06T13:05:19.577Z,22.37
2018-07-06T13:07:49.166Z,24.23
2018-07-06T13:10:18.779Z,27.80
2018-07-06T13:12:49.393Z,22.23
2018-07-06T13:15:18.949Z,25.90
2018-07-06T13:17:48.425Z,24.57
2018-07-06T13:20:19.771Z,26.90
2018-07-06T13:22:49.925Z,25.90
2018-07-06T13:25:21.022Z,27.67
2018-07-06T13:27:52.072Z,22.53
2018-07-06T13:30:23.108Z,23.80
2018-07-06T13:32:52.646Z,23.27
2018-07-06T13:35:22.792Z,22.40
2018-07-06T13:37:52.975Z,21.40
2018-07-06T13:40:22.790Z,20.23
2018-07-06T13:42:53.077Z,18.57
2018-07-06T13:45:22.621Z,14.80
2018-07-06T13:47:54.977Z,17.17
2018-07-06T13:50:25.345Z,14.00
2018-07-06T13:52:55.272Z,14.80
2018-07-06T13:55:25.215Z,15.50
2018-07-06T13:57:54.841Z,30.00
2018-07-06T14:00:25.960Z,16.00
2018-07-06T14:02:56.416Z,14.97
2018-07-06T14:05:27.053Z,15.77
2018-07-06T14:07:57.088Z,14.67
2018-07-06T14:10:27.352Z,14.07
2018-07-06T14:12:56.805Z,15.30
2018-07-06T14:15:26.316Z,14.60
2018-07-06T14:17:56.621Z,16.37
2018-07-06T14:20:26.405Z,15.00
2018-07-06T14:22:55.851Z,15.90
2018-07-06T14:25:26.345Z,13.90
2018-07-06T14:27:55.841Z,13.63
2018-07-06T14:30:26.880Z,16.23
2018-07-06T14:32:56.328Z,16.53
2018-07-06T14:35:25.797Z,16.43
2018-07-06T14:37:56.252Z,18.50
2018-07-06T14:40:25.656Z,17.70
2018-07-06T14:42:55.057Z,18.23
2018-07-06T14:45:25.187Z,18.80
2018-07-06T14:47:54.743Z,19.63
2018-07-06T14:50:24.173Z,19.77
2018-07-06T14:52:54.475Z,16.30
2018-07-06T14:55:23.857Z,15.37
2018-07-06T14:57:53.570Z,10.47
2018-07-06T15:00:24.119Z,8.20
2018-07-06T15:02:53.658Z,7.70
2018-07-06T15:05:24.495Z,6.43
2018-07-06T15:07:53.946Z,6.17
2018-07-06T15:10:23.026Z,7.40
2018-07-06T15:12:52.782Z,6.47
2018-07-06T15:15:22.230Z,6.37
2018-07-06T15:17:52.455Z,7.00
2018-07-06T15:20:23.223Z,6.70
2018-07-06T15:22:52.691Z,6.43
2018-07-06T15:25:22.278Z,6.50
2018-07-06T15:27:52.680Z,7.07
2018-07-06T15:30:22.169Z,7.33
2018-07-06T15:32:51.651Z,7.00
2018-07-06T15:35:21.057Z,6.87
2018-07-06T15:37:51.301Z,5.93
2018-07-06T15:40:20.726Z,5.70
2018-07-06T15:42:50.512Z,7.20
2018-07-06T15:45:21.088Z,6.40
2018-07-06T15:47:50.466Z,5.90
2018-07-06T15:50:19.999Z,6.10
2018-07-06T15:52:50.391Z,6.17
2018-07-06T15:55:20.204Z,6.10
2018-07-06T15:57:49.612Z,5.27
2018-07-06T16:00:20.794Z,6.17
2018-07-06T16:02:50.631Z,7.07
2018-07-06T16:05:21.168Z,5.60
2018-07-06T16:07:50.958Z,6.17
2018-07-06T16:10:20.476Z,7.17
2018-07-06T16:12:50.768Z,6.80
2018-07-06T16:15:20.263Z,7.37
2018-07-06T16:17:49.714Z,7.50
2018-07-06T16:20:22.138Z,7.60
2018-07-06T16:22:51.708Z,7.10
2018-07-06T16:25:21.617Z,7.67
2018-07-06T16:27:52.478Z,8.43
2018-07-06T16:30:23.067Z,8.17
2018-07-06T16:32:52.616Z,7.50
2018-07-06T16:35:23.146Z,8.17
2018-07-06T16:37:53.135Z,9.07
2018-07-06T16:40:25.218Z,9.27
2018-07-06T16:42:55.978Z,9.13
2018-07-06T16:45:26.492Z,8.37
2018-07-06T16:47:56.116Z,9.47
2018-07-06T16:50:27.618Z,10.47
2018-07-06T16:52:58.260Z,9.73
2018-07-06T16:55:27.800Z,10.10
2018-07-06T16:57:58.566Z,10.00
2018-07-06T17:00:28.068Z,11.50
2018-07-06T17:02:59.821Z,13.30
2018-07-06T17:05:31.920Z,12.80
2018-07-06T17:08:08.977Z,13.97
2018-07-06T17:10:42.133Z,15.17
2018-07-06T17:13:11.998Z,14.83
2018-07-06T17:15:41.503Z,15.27
2018-07-06T17:18:10.909Z,13.27
2018-07-06T17:20:41.506Z,12.60
2018-07-06T17:23:17.677Z,13.23
2018-07-06T17:25:47.258Z,14.60
2018-07-06T17:28:17.707Z,15.10
2018-07-06T17:30:47.222Z,11.33
2018-07-06T17:33:16.756Z,11.40
2018-07-06T17:35:46.247Z,10.00
2018-07-06T17:38:16.387Z,10.93
2018-07-06T17:40:46.583Z,9.83
2018-07-06T17:43:16.823Z,9.40
2018-07-06T17:45:46.660Z,8.77
2018-07-06T17:48:17.101Z,8.50
2018-07-06T17:50:46.625Z,9.50
2018-07-06T17:53:16.187Z,9.30
2018-07-06T17:55:46.752Z,8.70
2018-07-06T17:58:16.251Z,8.90
2018-07-06T18:00:45.794Z,8.57
2018-07-06T18:03:16.282Z,8.20
2018-07-06T18:05:46.615Z,8.43
2018-07-06T18:08:16.769Z,8.30
2018-07-06T18:10:46.269Z,8.93
2018-07-06T18:13:15.716Z,9.23
2018-07-06T18:15:46.180Z,9.03
2018-07-06T18:18:15.739Z,8.87
2018-07-06T18:20:45.232Z,8.60
2018-07-06T18:23:15.186Z,9.23
2018-07-06T18:25:44.595Z,9.17
2018-07-06T18:28:14.069Z,9.60
2018-07-06T18:30:54.979Z,10.27
2018-07-06T18:33:24.437Z,9.13
2018-07-06T18:35:54.510Z,9.63
2018-07-06T18:38:24.148Z,11.03
2018-07-06T18:40:53.755Z,12.07
2018-07-06T18:43:24.568Z,14.57
2018-07-06T18:45:54.052Z,15.47
2018-07-06T18:48:23.818Z,15.73
2018-07-06T18:50:54.033Z,14.20
2018-07-06T18:53:23.478Z,15.40
2018-07-06T18:55:55.238Z,13.33
2018-07-06T18:58:26.378Z,13.87
2018-07-06T19:00:56.453Z,14.10
2018-07-06T19:03:26.153Z,13.27
2018-07-06T19:05:58.708Z,14.63
2018-07-06T19:08:28.649Z,13.93
2018-07-06T19:10:58.802Z,14.23
2018-07-06T19:13:28.383Z,14.60
2018-07-06T19:15:57.834Z,12.63
2018-07-06T19:18:27.772Z,14.20
2018-07-06T19:20:57.580Z,14.93
2018-07-06T19:23:28.030Z,15.13
2018-07-06T19:25:57.579Z,14.40
2018-07-06T19:28:28.040Z,13.70
2018-07-06T19:30:57.759Z,13.30
2018-07-06T19:33:28.186Z,13.23
2018-07-06T19:35:57.692Z,13.47
2018-07-06T19:38:27.189Z,13.80
2018-07-06T19:40:57.576Z,13.83
2018-07-06T19:43:27.107Z,13.80
2018-07-06T19:45:56.585Z,13.10
2018-07-06T19:48:27.062Z,13.93
2018-07-06T19:50:56.526Z,12.93
2018-07-06T19:53:26.042Z,13.47
2018-07-06T19:55:56.510Z,15.27
2018-07-06T19:58:26.213Z,14.87
2018-07-06T20:00:56.377Z,14.80
2018-07-06T20:03:26.384Z,17.30
2018-07-06T20:05:57.502Z,18.20
2018-07-06T20:08:29.010Z,15.60
2018-07-06T20:11:03.626Z,17.00
2018-07-06T20:13:33.241Z,17.50
2018-07-06T20:16:06.014Z,16.40
2018-07-06T20:18:36.124Z,19.10
2018-07-06T20:21:06.690Z,18.20
2018-07-06T20:23:36.431Z,19.13
2018-07-06T20:26:06.766Z,17.73
2018-07-06T20:28:36.259Z,14.90
2018-07-06T20:31:07.260Z,15.00
2018-07-06T20:33:36.779Z,15.17
2018-07-06T20:36:07.411Z,12.90
2018-07-06T20:38:39.442Z,14.20
2018-07-06T20:41:11.719Z,14.83
2018-07-06T20:43:44.560Z,14.70
2018-07-06T20:46:15.015Z,15.00
2018-07-06T20:48:45.551Z,15.47
2018-07-06T20:51:16.670Z,14.97
2018-07-06T20:53:46.795Z,15.63
2018-07-06T20:56:17.974Z,18.07
2018-07-06T20:58:48.050Z,17.63
2018-07-06T21:01:21.430Z,20.20
2018-07-06T21:03:52.656Z,19.60
2018-07-06T21:06:24.886Z,18.67
2018-07-06T21:08:55.137Z,20.57
2018-07-06T21:11:26.374Z,19.37
2018-07-06T21:13:56.101Z,18.53
2018-07-06T21:16:25.850Z,19.10
2018-07-06T21:18:56.841Z,20.90
2018-07-06T21:21:27.730Z,18.67
2018-07-06T21:23:58.155Z,18.80
2018-07-06T21:26:28.364Z,19.80
2018-07-06T21:28:57.935Z,18.90
2018-07-06T21:31:29.186Z,18.07
2018-07-06T21:33:58.899Z,19.60
2018-07-06T21:36:28.618Z,17.10
2018-07-06T21:38:59.043Z,16.33
2018-07-06T21:41:29.054Z,18.90
2018-07-06T21:43:59.974Z,17.00
2018-07-06T21:46:29.555Z,16.50
2018-07-06T21:48:59.283Z,16.50
2018-07-06T21:51:30.039Z,17.60
2018-07-06T21:53:59.511Z,15.23
2018-07-06T21:56:29.523Z,16.57
2018-07-06T21:58:59.854Z,14.10
2018-07-06T22:01:30.416Z,15.30
2018-07-06T22:04:00.151Z,15.40
2018-07-06T22:06:31.440Z,14.97
2018-07-06T22:09:00.957Z,16.03
2018-07-06T22:11:30.486Z,13.63
2018-07-06T22:14:01.335Z,14.47
2018-07-06T22:16:30.827Z,13.13
2018-07-06T22:19:00.112Z,13.17
2018-07-06T22:21:30.428Z,15.30
2018-07-06T22:23:59.932Z,13.70
2018-07-06T22:26:29.424Z,13.33
2018-07-06T22:28:59.921Z,12.40
2018-07-06T22:31:29.515Z,13.30
2018-07-06T22:33:58.964Z,12.73
2018-07-06T22:36:29.149Z,12.93
2018-07-06T22:38:59.249Z,12.23
2018-07-06T22:41:30.630Z,13.10
2018-07-06T22:44:01.653Z,12.73
2018-07-06T22:46:31.877Z,12.63
2018-07-06T22:49:01.351Z,13.80
2018-07-06T22:51:31.818Z,13.00
2018-07-06T22:54:01.787Z,13.93
2018-07-06T22:56:32.026Z,14.40
2018-07-06T22:59:02.869Z,13.97
2018-07-06T23:01:32.758Z,14.70
2018-07-06T23:04:03.153Z,13.23
2018-07-06T23:06:33.597Z,14.20
2018-07-06T23:09:04.656Z,15.10
2018-07-06T23:11:34.268Z,14.60
2018-07-06T23:14:05.314Z,13.97
2018-07-06T23:16:34.789Z,14.70
2018-07-06T23:19:05.155Z,15.53
2018-07-06T23:21:35.612Z,14.97
2018-07-06T23:24:05.497Z,15.93
2018-07-06T23:26:36.470Z,15.13
2018-07-06T23:29:07.027Z,15.47
2018-07-06T23:31:37.366Z,15.43
2018-07-06T23:34:07.170Z,17.03
2018-07-06T23:36:37.197Z,17.93
2018-07-06T23:39:09.416Z,17.10
2018-07-06T23:41:39.217Z,18.47
2018-07-06T23:44:10.089Z,17.90
2018-07-06T23:46:40.546Z,16.10
2018-07-06T23:49:11.000Z,17.60
2018-07-06T23:51:42.872Z,17.00
2018-07-06T23:54:13.608Z,17.83
2018-07-06T23:56:43.047Z,17.23
2018-07-06T23:59:12.489Z,20.13
